Time;durP1;ratioP1;P1;durP2;ratioP2;P2;SDS_P1;SDS_P2;PMS_P1;PMS_P2;Temp;Humidity;BMP_temperature;BMP_pressure;BME280_temperature;BME280_humidity;BME280_pressure;Samples;Min_cycle;Max_cycle;Signal;HPM_P1;HPM_P2
2022/08/26 00:01:41;;;;;;;14.93;4.23;;;;;;;;;;5105605;28;20204;-83
2022/08/26 00:04:08;;;;;;;13.03;4.83;;;;;;;;;;5095415;28;20686;-83
2022/08/26 00:06:35;;;;;;;13.63;4.20;;;;;;;;;;5093679;28;20196;-83
2022/08/26 00:09:04;;;;;;;17.57;4.77;;;;;;;;;;5093416;28;20200;-83
2022/08/26 00:11:31;;;;;;;13.93;4.03;;;;;;;;;;5093470;28;20594;-82
2022/08/26 00:13:58;;;;;;;20.63;3.97;;;;;;;;;;5093506;28;20203;-83
2022/08/26 00:16:26;;;;;;;13.03;3.90;;;;;;;;;;5075192;28;20242;-82
2022/08/26 00:18:53;;;;;;;10.43;3.23;;;;;;;;;;5093466;28;20197;-82
2022/08/26 00:21:20;;;;;;;22.07;4.50;;;;;;;;;;5099173;28;20219;-83
2022/08/26 00:23:47;;;;;;;22.60;4.03;;;;;;;;;;5101605;28;20205;-83
2022/08/26 00:26:16;;;;;;;13.03;4.40;;;;;;;;;;5107027;28;20208;-82
2022/08/26 00:28:42;;;;;;;15.33;4.30;;;;;;;;;;5093380;28;20201;-83
2022/08/26 00:31:09;;;;;;;17.67;4.20;;;;;;;;;;5092815;28;20216;-85
2022/08/26 00:33:37;;;;;;;19.93;4.50;;;;;;;;;;5102156;28;20265;-82
2022/08/26 00:36:04;;;;;;;13.07;3.90;;;;;;;;;;5097968;28;20207;-83
2022/08/26 00:38:31;;;;;;;17.03;4.30;;;;;;;;;;5093444;28;20212;-82
2022/08/26 00:40:57;;;;;;;20.03;4.73;;;;;;;;;;5092655;28;20220;-82
2022/08/26 00:43:26;;;;;;;18.20;4.07;;;;;;;;;;5093120;28;20275;-84
2022/08/26 00:46:07;;;;;;;13.70;3.33;;;;;;;;;;5092458;28;20216;-83
2022/08/26 00:48:34;;;;;;;9.83;4.40;;;;;;;;;;5078962;28;20196;-82
2022/08/26 00:51:04;;;;;;;14.97;3.87;;;;;;;;;;5091695;28;20196;-83
2022/08/26 00:53:34;;;;;;;13.37;3.97;;;;;;;;;;5092644;28;20200;-82
2022/08/26 00:56:04;;;;;;;12.50;4.30;;;;;;;;;;5092627;28;20297;-83
2022/08/26 00:58:33;;;;;;;12.23;4.03;;;;;;;;;;5093507;28;20212;-79
2022/08/26 01:01:01;;;;;;;17.93;5.23;;;;;;;;;;5079038;28;20228;-80
2022/08/26 01:03:29;;;;;;;13.20;4.13;;;;;;;;;;5092850;28;20209;-78
2022/08/26 01:05:58;;;;;;;16.53;3.87;;;;;;;;;;5097765;28;20203;-79
2022/08/26 01:08:25;;;;;;;16.20;4.07;;;;;;;;;;5101261;28;20566;-80
2022/08/26 01:10:53;;;;;;;17.00;4.10;;;;;;;;;;5095948;28;20639;-80
2022/08/26 01:13:20;;;;;;;13.07;3.50;;;;;;;;;;5102930;28;20257;-80
2022/08/26 01:15:51;;;;;;;11.50;4.03;;;;;;;;;;5092458;28;20285;-80
2022/08/26 01:18:18;;;;;;;12.80;3.33;;;;;;;;;;5092499;28;20208;-80
2022/08/26 01:20:54;;;;;;;13.30;3.63;;;;;;;;;;5091884;28;20235;-80
2022/08/26 01:23:23;;;;;;;10.40;3.70;;;;;;;;;;5092505;28;20203;-80
2022/08/26 01:25:54;;;;;;;18.43;5.03;;;;;;;;;;5106785;28;20570;-80
2022/08/26 01:28:23;;;;;;;14.80;4.17;;;;;;;;;;5092236;28;20635;-80
2022/08/26 01:30:51;;;;;;;15.33;4.20;;;;;;;;;;5092073;28;20204;-84
2022/08/26 01:33:22;;;;;;;18.77;3.50;;;;;;;;;;5091875;28;20614;-80
2022/08/26 01:35:49;;;;;;;14.53;3.70;;;;;;;;;;5091991;28;20660;-80
2022/08/26 01:38:17;;;;;;;7.27;3.53;;;;;;;;;;5106170;28;20200;-80
2022/08/26 01:40:45;;;;;;;11.70;4.03;;;;;;;;;;5103396;28;20234;-80
2022/08/26 01:43:16;;;;;;;16.37;4.23;;;;;;;;;;5094035;28;20228;-80
2022/08/26 01:45:44;;;;;;;15.77;5.30;;;;;;;;;;5091650;28;20653;-85
2022/08/26 01:48:14;;;;;;;18.03;2.70;;;;;;;;;;5092063;28;20227;-80
2022/08/26 01:50:41;;;;;;;10.43;4.30;;;;;;;;;;5101468;28;20200;-80
2022/08/26 01:53:11;;;;;;;14.33;3.60;;;;;;;;;;5096144;28;20212;-79
2022/08/26 01:55:40;;;;;;;11.07;3.50;;;;;;;;;;5091442;28;20315;-80
2022/08/26 01:58:13;;;;;;;10.97;3.37;;;;;;;;;;5091634;28;20199;-80
2022/08/26 02:00:40;;;;;;;16.47;4.20;;;;;;;;;;5091266;28;20255;-79
2022/08/26 02:03:20;;;;;;;12.27;3.33;;;;;;;;;;5090613;28;20200;-80
2022/08/26 02:05:52;;;;;;;13.27;3.33;;;;;;;;;;5091252;28;20200;-79
2022/08/26 02:08:21;;;;;;;22.00;4.17;;;;;;;;;;5091859;28;20295;-80
2022/08/26 02:10:48;;;;;;;9.00;2.90;;;;;;;;;;5091562;28;20204;-80
2022/08/26 02:13:16;;;;;;;12.20;3.17;;;;;;;;;;5091301;28;20678;-79
2022/08/26 02:15:44;;;;;;;13.90;3.20;;;;;;;;;;5091011;28;20200;-79
2022/08/26 02:18:11;;;;;;;5.93;3.73;;;;;;;;;;5091583;28;20207;-80
2022/08/26 02:20:38;;;;;;;8.43;3.20;;;;;;;;;;5076951;28;20239;-80
2022/08/26 02:23:05;;;;;;;8.13;3.40;;;;;;;;;;5071274;28;20220;-80
2022/08/26 02:25:38;;;;;;;11.17;3.17;;;;;;;;;;5071262;28;20205;-80
2022/08/26 02:28:05;;;;;;;17.53;3.33;;;;;;;;;;5104704;28;20670;-78
2022/08/26 02:30:33;;;;;;;13.87;3.10;;;;;;;;;;5091061;28;20200;-80
2022/08/26 02:33:02;;;;;;;8.97;3.20;;;;;;;;;;5091014;28;20691;-80
2022/08/26 02:35:30;;;;;;;13.63;3.60;;;;;;;;;;5091193;28;20227;-78
2022/08/26 02:37:57;;;;;;;16.97;3.70;;;;;;;;;;5091153;28;20219;-79
2022/08/26 02:40:27;;;;;;;8.60;3.30;;;;;;;;;;5090400;28;20251;-78
2022/08/26 02:42:54;;;;;;;8.87;3.07;;;;;;;;;;5091227;28;20223;-78
2022/08/26 02:45:21;;;;;;;11.53;3.30;;;;;;;;;;5090986;28;20259;-78
2022/08/26 02:47:52;;;;;;;6.97;2.63;;;;;;;;;;5090660;28;20207;-79
2022/08/26 02:50:19;;;;;;;7.67;2.93;;;;;;;;;;5083168;28;20203;-77
2022/08/26 02:52:47;;;;;;;9.47;3.50;;;;;;;;;;5097973;28;20204;-79
2022/08/26 02:55:14;;;;;;;13.30;3.40;;;;;;;;;;5090537;28;20709;-78
2022/08/26 02:57:41;;;;;;;10.53;3.27;;;;;;;;;;5090750;28;20204;-79
2022/08/26 03:00:10;;;;;;;9.30;3.43;;;;;;;;;;5090237;28;20220;-79
2022/08/26 03:02:37;;;;;;;13.93;3.67;;;;;;;;;;5090579;28;20204;-78
2022/08/26 03:05:06;;;;;;;12.77;4.00;;;;;;;;;;5090396;28;20200;-78
2022/08/26 03:07:33;;;;;;;10.07;3.73;;;;;;;;;;5090075;28;20211;-78
2022/08/26 03:10:00;;;;;;;16.90;3.60;;;;;;;;;;5090348;28;20208;-80
2022/08/26 03:12:27;;;;;;;16.20;3.67;;;;;;;;;;5090653;28;20285;-78
2022/08/26 03:14:55;;;;;;;13.00;3.40;;;;;;;;;;5092849;28;20197;-79
2022/08/26 03:17:21;;;;;;;9.87;3.73;;;;;;;;;;5094511;28;20211;-77
2022/08/26 03:19:48;;;;;;;12.37;4.07;;;;;;;;;;5094491;28;20199;-79
2022/08/26 03:22:16;;;;;;;11.90;3.00;;;;;;;;;;5094650;28;20254;-79
2022/08/26 03:24:43;;;;;;;11.67;3.67;;;;;;;;;;5094789;28;20624;-78
2022/08/26 03:27:10;;;;;;;12.80;3.90;;;;;;;;;;5094472;28;20243;-79
2022/08/26 03:32:26;;;;;;;9.43;3.37;;;;;;;;;;5033413;28;20357;-81
2022/08/26 03:34:53;;;;;;;14.67;3.63;;;;;;;;;;5093933;28;20207;-81
2022/08/26 03:37:21;;;;;;;15.37;3.70;;;;;;;;;;5093665;28;20204;-81
2022/08/26 03:39:48;;;;;;;8.77;3.70;;;;;;;;;;5094060;28;20204;-78
2022/08/26 03:42:16;;;;;;;17.63;4.47;;;;;;;;;;5094168;28;20622;-73
2022/08/26 03:44:43;;;;;;;12.77;3.70;;;;;;;;;;5093848;28;20690;-78
2022/08/26 03:47:11;;;;;;;14.43;3.37;;;;;;;;;;5094034;28;20281;-79
2022/08/26 03:49:38;;;;;;;13.33;3.37;;;;;;;;;;5093540;28;20208;-80
2022/08/26 03:52:05;;;;;;;10.63;3.83;;;;;;;;;;5093942;28;20223;-81
2022/08/26 03:54:34;;;;;;;8.87;4.53;;;;;;;;;;5094048;28;20232;-82
2022/08/26 03:57:01;;;;;;;8.07;4.47;;;;;;;;;;5093371;28;20246;-76
2022/08/26 03:59:28;;;;;;;10.50;3.37;;;;;;;;;;5093300;28;20207;-76
2022/08/26 04:01:54;;;;;;;13.67;3.53;;;;;;;;;;5093918;28;20224;-76
2022/08/26 04:04:21;;;;;;;15.10;4.13;;;;;;;;;;5079476;28;20200;-76
2022/08/26 04:06:48;;;;;;;9.67;3.70;;;;;;;;;;5093120;28;20254;-76
2022/08/26 04:09:18;;;;;;;15.57;4.20;;;;;;;;;;5093688;28;20213;-76
2022/08/26 04:11:47;;;;;;;12.77;3.53;;;;;;;;;;5093044;28;20566;-76
2022/08/26 04:14:16;;;;;;;9.30;3.80;;;;;;;;;;5093559;28;20230;-76
2022/08/26 04:16:43;;;;;;;10.73;3.67;;;;;;;;;;5093154;28;20196;-75
2022/08/26 04:19:11;;;;;;;8.93;3.63;;;;;;;;;;5093296;28;20207;-76
2022/08/26 04:21:38;;;;;;;11.83;4.40;;;;;;;;;;5081471;28;20228;-76
2022/08/26 04:24:05;;;;;;;5.30;3.43;;;;;;;;;;5087525;28;20257;-76
2022/08/26 04:26:35;;;;;;;8.90;3.47;;;;;;;;;;5091571;28;20203;-77
2022/08/26 04:29:06;;;;;;;16.90;4.10;;;;;;;;;;5093313;28;20200;-76
2022/08/26 04:31:34;;;;;;;14.57;4.33;;;;;;;;;;5078798;28;20211;-76
2022/08/26 04:34:01;;;;;;;14.00;4.50;;;;;;;;;;5093017;28;20625;-76
2022/08/26 04:36:28;;;;;;;14.93;4.30;;;;;;;;;;5092181;28;20203;-79
2022/08/26 04:38:55;;;;;;;18.23;3.67;;;;;;;;;;5092122;28;20754;-77
2022/08/26 04:41:22;;;;;;;20.83;3.93;;;;;;;;;;5095489;28;20223;-76
2022/08/26 04:43:49;;;;;;;9.97;3.13;;;;;;;;;;5103685;28;20200;-76
2022/08/26 04:46:20;;;;;;;9.03;3.10;;;;;;;;;;5092381;28;20199;-76
2022/08/26 04:48:47;;;;;;;9.90;3.77;;;;;;;;;;5092954;28;20223;-80
2022/08/26 04:51:14;;;;;;;14.80;3.77;;;;;;;;;;5106791;28;20689;-76
2022/08/26 04:53:41;;;;;;;10.73;3.93;;;;;;;;;;5092529;28;20200;-76
2022/08/26 04:56:08;;;;;;;9.63;4.10;;;;;;;;;;5092887;28;20231;-76
2022/08/26 04:58:35;;;;;;;13.70;3.10;;;;;;;;;;5092653;28;20207;-74
2022/08/26 05:01:01;;;;;;;15.80;3.47;;;;;;;;;;5092206;28;20223;-78
2022/08/26 05:03:29;;;;;;;20.30;4.00;;;;;;;;;;5092376;28;20208;-75
2022/08/26 05:05:56;;;;;;;15.37;3.90;;;;;;;;;;5092435;28;20205;-76
2022/08/26 05:08:23;;;;;;;18.67;3.63;;;;;;;;;;5092325;28;20205;-75
2022/08/26 05:10:54;;;;;;;17.57;4.13;;;;;;;;;;5091810;28;20208;-76
2022/08/26 05:13:23;;;;;;;15.37;4.40;;;;;;;;;;5092838;28;20261;-75
2022/08/26 05:15:50;;;;;;;21.77;3.53;;;;;;;;;;5092380;28;20208;-75
2022/08/26 05:18:19;;;;;;;17.03;3.43;;;;;;;;;;5092352;28;20192;-76
2022/08/26 05:20:50;;;;;;;13.20;3.03;;;;;;;;;;5091687;28;20589;-76
2022/08/26 05:23:17;;;;;;;14.43;3.27;;;;;;;;;;5092390;28;20763;-76
2022/08/26 05:25:46;;;;;;;9.73;3.40;;;;;;;;;;5092241;28;20200;-76
2022/08/26 05:28:15;;;;;;;9.50;3.30;;;;;;;;;;5092509;28;20593;-75
2022/08/26 05:30:42;;;;;;;15.63;3.43;;;;;;;;;;5091726;28;20215;-75
2022/08/26 05:33:09;;;;;;;10.77;3.70;;;;;;;;;;5106063;28;20204;-76
2022/08/26 05:35:37;;;;;;;17.03;4.03;;;;;;;;;;5091718;28;20211;-75
2022/08/26 05:38:06;;;;;;;15.03;3.13;;;;;;;;;;5091534;28;20619;-75
2022/08/26 05:40:35;;;;;;;15.23;4.30;;;;;;;;;;5091222;28;20674;-76
2022/08/26 05:43:02;;;;;;;15.93;3.60;;;;;;;;;;5106029;28;20246;-75
2022/08/26 05:45:30;;;;;;;12.90;3.97;;;;;;;;;;5091517;28;20200;-76
2022/08/26 05:47:57;;;;;;;12.20;3.03;;;;;;;;;;5091176;28;20250;-75
2022/08/26 05:50:24;;;;;;;11.30;3.33;;;;;;;;;;5091703;28;20258;-74
2022/08/26 05:52:51;;;;;;;10.93;3.73;;;;;;;;;;5091259;28;20203;-75
2022/08/26 05:55:20;;;;;;;11.50;3.30;;;;;;;;;;5091098;28;20594;-76
2022/08/26 05:57:47;;;;;;;18.83;4.03;;;;;;;;;;5091825;28;20196;-75
2022/08/26 06:00:15;;;;;;;11.47;3.43;;;;;;;;;;5091092;28;20195;-77
2022/08/26 06:02:42;;;;;;;11.23;2.83;;;;;;;;;;5091086;28;20227;-77
2022/08/26 06:05:09;;;;;;;14.30;3.60;;;;;;;;;;5091448;28;20204;-77
2022/08/26 06:10:21;;;;;;;11.97;3.30;;;;;;;;;;5091387;28;20342;-77
2022/08/26 06:12:47;;;;;;;11.20;3.97;;;;;;;;;;5090966;28;20291;-76
2022/08/26 06:15:14;;;;;;;10.87;3.63;;;;;;;;;;5091116;28;20204;-76
2022/08/26 06:17:41;;;;;;;18.90;4.47;;;;;;;;;;5091237;28;20224;-77
2022/08/26 06:20:09;;;;;;;8.73;3.27;;;;;;;;;;5101241;28;20195;-76
2022/08/26 06:25:40;;;;;;;12.87;3.23;;;;;;;;;;5090535;28;20603;-77
2022/08/26 06:28:07;;;;;;;19.13;3.60;;;;;;;;;;5091171;28;20208;-76
2022/08/26 06:30:39;;;;;;;9.30;3.53;;;;;;;;;;5090743;28;20596;-76
2022/08/26 06:33:06;;;;;;;13.37;4.43;;;;;;;;;;5090878;28;20196;-76
2022/08/26 06:35:36;;;;;;;8.87;3.77;;;;;;;;;;5089339;28;20253;-76
2022/08/26 06:38:03;;;;;;;17.57;4.20;;;;;;;;;;5083306;28;20235;-77
2022/08/26 06:40:32;;;;;;;12.17;3.20;;;;;;;;;;5072401;28;20210;-77
2022/08/26 06:42:59;;;;;;;13.37;3.63;;;;;;;;;;5090642;28;20224;-77
2022/08/26 06:45:26;;;;;;;9.23;3.20;;;;;;;;;;5090337;28;20701;-77
2022/08/26 06:47:53;;;;;;;12.90;3.90;;;;;;;;;;5090544;28;20261;-76
2022/08/26 06:50:20;;;;;;;11.03;3.80;;;;;;;;;;5089631;28;20204;-78
2022/08/26 06:52:46;;;;;;;8.63;3.23;;;;;;;;;;5090791;28;20209;-77
2022/08/26 06:55:13;;;;;;;10.40;3.60;;;;;;;;;;5090456;28;20234;-77
2022/08/26 06:57:41;;;;;;;15.17;3.83;;;;;;;;;;5090428;28;20200;-78
2022/08/26 07:00:10;;;;;;;8.03;3.37;;;;;;;;;;5090382;28;20223;-78
2022/08/26 07:02:36;;;;;;;8.70;2.93;;;;;;;;;;5090260;28;20222;-78
2022/08/26 07:05:05;;;;;;;19.03;3.87;;;;;;;;;;5089364;28;20200;-80
2022/08/26 07:07:32;;;;;;;13.93;3.03;;;;;;;;;;5090137;28;20207;-78
2022/08/26 07:09:59;;;;;;;6.03;3.50;;;;;;;;;;5090364;28;20196;-79
2022/08/26 07:12:26;;;;;;;13.83;3.40;;;;;;;;;;5090447;28;20227;-80
2022/08/26 07:14:54;;;;;;;15.23;3.33;;;;;;;;;;5090511;28;20215;-81
2022/08/26 07:17:21;;;;;;;8.83;3.87;;;;;;;;;;5091377;28;20201;-80
2022/08/26 07:19:48;;;;;;;11.17;3.83;;;;;;;;;;5101718;28;20290;-80
2022/08/26 07:22:15;;;;;;;11.23;3.03;;;;;;;;;;5089246;28;20274;-79
2022/08/26 07:24:42;;;;;;;10.30;3.27;;;;;;;;;;5096026;28;20214;-84
2022/08/26 07:27:15;;;;;;;11.60;3.40;;;;;;;;;;5098862;28;20204;-83
2022/08/26 07:29:43;;;;;;;11.73;3.37;;;;;;;;;;5090239;28;20207;-84
2022/08/26 07:32:13;;;;;;;13.70;3.27;;;;;;;;;;5090108;28;20600;-84
2022/08/26 07:34:40;;;;;;;7.83;2.93;;;;;;;;;;5089964;28;20671;-83
2022/08/26 07:37:07;;;;;;;8.17;2.90;;;;;;;;;;5090144;28;20204;-84
2022/08/26 07:39:34;;;;;;;10.63;3.47;;;;;;;;;;5089642;28;20196;-84
2022/08/26 07:42:01;;;;;;;10.70;3.60;;;;;;;;;;5089520;28;20231;-83
2022/08/26 07:44:28;;;;;;;10.57;3.60;;;;;;;;;;5090005;28;20204;-84
2022/08/26 07:46:55;;;;;;;15.83;4.40;;;;;;;;;;5089947;28;20701;-84
2022/08/26 07:49:25;;;;;;;11.47;3.07;;;;;;;;;;5089779;28;20204;-84
2022/08/26 07:51:53;;;;;;;5.70;2.83;;;;;;;;;;5088986;28;20261;-89
2022/08/26 07:54:20;;;;;;;12.60;3.73;;;;;;;;;;5086516;28;20201;-92
2022/08/26 07:56:47;;;;;;;7.70;3.30;;;;;;;;;;5091094;28;20229;-90
2022/08/26 07:59:15;;;;;;;5.80;3.30;;;;;;;;;;5084612;28;20204;-89
2022/08/26 08:01:42;;;;;;;7.27;4.17;;;;;;;;;;5092401;28;21221;-85
2022/08/26 08:04:09;;;;;;;15.27;3.97;;;;;;;;;;5092228;28;20196;-86
2022/08/26 08:06:37;;;;;;;11.23;3.80;;;;;;;;;;5092357;28;20204;-85
2022/08/26 08:09:04;;;;;;;6.33;2.97;;;;;;;;;;5093604;28;20201;-86
2022/08/26 08:11:32;;;;;;;19.57;4.23;;;;;;;;;;5093302;28;20774;-85
2022/08/26 08:13:59;;;;;;;8.30;3.83;;;;;;;;;;5107612;28;20702;-86
2022/08/26 08:16:27;;;;;;;14.30;3.77;;;;;;;;;;5093118;28;20208;-85
2022/08/26 08:18:55;;;;;;;8.33;3.97;;;;;;;;;;5093642;28;20200;-88
2022/08/26 08:21:23;;;;;;;11.47;4.10;;;;;;;;;;5093750;28;20694;-84
2022/08/26 08:23:52;;;;;;;11.63;3.87;;;;;;;;;;5106224;28;20617;-85
2022/08/26 08:26:19;;;;;;;12.57;5.07;;;;;;;;;;5094631;28;20342;-81
2022/08/26 08:28:46;;;;;;;12.90;4.17;;;;;;;;;;5091932;28;20204;-82
2022/08/26 08:31:19;;;;;;;6.60;3.50;;;;;;;;;;5093092;28;20682;-83
2022/08/26 08:33:46;;;;;;;6.97;4.07;;;;;;;;;;5093596;28;20201;-83
2022/08/26 08:36:14;;;;;;;20.27;3.87;;;;;;;;;;5086550;28;20212;-84
2022/08/26 08:38:41;;;;;;;8.90;3.80;;;;;;;;;;5092959;28;20295;-85
2022/08/26 08:41:23;;;;;;;10.13;4.77;;;;;;;;;;5092746;28;20598;-84
2022/08/26 08:43:53;;;;;;;12.70;5.43;;;;;;;;;;5093162;28;20717;-84
2022/08/26 08:46:20;;;;;;;11.93;3.67;;;;;;;;;;5093281;28;20283;-86
2022/08/26 08:48:49;;;;;;;9.70;4.07;;;;;;;;;;5093042;28;20245;-86
2022/08/26 08:51:20;;;;;;;8.43;3.93;;;;;;;;;;5092969;28;20196;-86
2022/08/26 08:53:49;;;;;;;22.97;5.37;;;;;;;;;;5093109;28;20192;-87
2022/08/26 08:56:23;;;;;;;10.83;3.90;;;;;;;;;;5092389;28;20228;-85
2022/08/26 08:58:53;;;;;;;13.27;4.53;;;;;;;;;;5092797;28;20291;-85
2022/08/26 09:01:28;;;;;;;12.40;4.27;;;;;;;;;;5092972;28;20243;-84
2022/08/26 09:04:17;;;;;;;18.87;4.60;;;;;;;;;;5092555;28;20960;-85
2022/08/26 09:06:45;;;;;;;12.60;4.10;;;;;;;;;;5093013;28;20200;-85
2022/08/26 09:09:16;;;;;;;14.07;4.93;;;;;;;;;;5092687;28;20224;-85
2022/08/26 09:11:44;;;;;;;19.27;5.53;;;;;;;;;;5086153;28;20219;-85
2022/08/26 09:14:11;;;;;;;25.07;5.10;;;;;;;;;;5092561;28;20726;-86
2022/08/26 09:16:43;;;;;;;10.00;3.80;;;;;;;;;;5092249;28;20196;-84
2022/08/26 09:19:17;;;;;;;13.90;4.30;;;;;;;;;;5092336;28;20206;-84
2022/08/26 09:21:44;;;;;;;16.63;4.67;;;;;;;;;;5092394;28;20200;-83
2022/08/26 09:24:11;;;;;;;18.27;5.43;;;;;;;;;;5092212;28;20208;-83
2022/08/26 09:26:46;;;;;;;13.40;4.60;;;;;;;;;;5091960;28;20211;-84
2022/08/26 09:29:21;;;;;;;15.30;4.63;;;;;;;;;;5091705;28;20203;-83
2022/08/26 09:31:48;;;;;;;18.30;4.73;;;;;;;;;;5092649;28;20208;-84
2022/08/26 09:34:18;;;;;;;9.50;4.73;;;;;;;;;;5092015;28;20203;-84
2022/08/26 09:36:46;;;;;;;11.60;5.03;;;;;;;;;;5092054;28;20992;-84
2022/08/26 09:39:35;;;;;;;9.90;4.57;;;;;;;;;;5092589;28;20214;-82
2022/08/26 09:42:21;;;;;;;22.60;5.20;;;;;;;;;;5092217;28;20200;-83
2022/08/26 09:44:56;;;;;;;13.23;4.33;;;;;;;;;;5092516;28;20204;-87
2022/08/26 09:47:25;;;;;;;11.93;4.53;;;;;;;;;;5091835;28;20611;-84
2022/08/26 09:49:58;;;;;;;9.63;5.00;;;;;;;;;;5092306;28;20215;-85
2022/08/26 09:52:26;;;;;;;10.97;4.83;;;;;;;;;;5092180;28;20204;-86
2022/08/26 09:55:06;;;;;;;10.30;4.63;;;;;;;;;;5091778;28;20267;-87
2022/08/26 09:57:37;;;;;;;15.57;4.73;;;;;;;;;;5078061;28;20207;-85
2022/08/26 10:00:24;;;;;;;12.33;4.07;;;;;;;;;;5091528;28;20212;-85
2022/08/26 10:02:51;;;;;;;11.00;4.63;;;;;;;;;;5079742;28;20653;-85
2022/08/26 10:05:28;;;;;;;10.37;4.70;;;;;;;;;;5092140;28;20201;-85
2022/08/26 10:07:55;;;;;;;14.37;5.13;;;;;;;;;;5078987;28;20278;-87
2022/08/26 10:10:23;;;;;;;9.13;4.17;;;;;;;;;;5091893;28;20227;-84
2022/08/26 10:13:04;;;;;;;10.47;4.73;;;;;;;;;;5091561;28;20215;-84
2022/08/26 10:15:40;;;;;;;11.93;4.33;;;;;;;;;;5091621;28;20215;-84
2022/08/26 10:18:12;;;;;;;12.37;4.63;;;;;;;;;;5091467;28;20242;-84
2022/08/26 10:20:49;;;;;;;8.43;4.23;;;;;;;;;;5091390;28;20204;-85
2022/08/26 10:23:18;;;;;;;8.27;4.30;;;;;;;;;;5090513;28;20219;-85
2022/08/26 10:25:47;;;;;;;18.53;4.60;;;;;;;;;;5091305;28;20212;-86
2022/08/26 10:28:23;;;;;;;11.57;5.03;;;;;;;;;;5091539;28;20214;-86
2022/08/26 10:30:54;;;;;;;10.60;4.23;;;;;;;;;;5077452;28;20876;-85
2022/08/26 10:33:22;;;;;;;11.30;4.67;;;;;;;;;;5073238;28;20210;-84
2022/08/26 10:35:54;;;;;;;9.10;4.47;;;;;;;;;;5090974;28;20886;-84
2022/08/26 10:38:26;;;;;;;15.87;4.80;;;;;;;;;;5077492;28;20257;-84
2022/08/26 10:40:56;;;;;;;9.83;4.93;;;;;;;;;;5091453;28;20219;-85
2022/08/26 10:43:30;;;;;;;17.47;4.60;;;;;;;;;;5091179;28;20223;-84
2022/08/26 10:46:02;;;;;;;15.73;4.60;;;;;;;;;;5090888;28;20241;-84
2022/08/26 10:48:35;;;;;;;7.57;4.20;;;;;;;;;;5091016;28;20643;-84
2022/08/26 10:51:02;;;;;;;16.47;5.57;;;;;;;;;;5090845;28;20682;-84
2022/08/26 10:53:41;;;;;;;9.80;4.07;;;;;;;;;;5072705;28;20762;-84
2022/08/26 10:56:12;;;;;;;10.20;4.63;;;;;;;;;;5090642;28;20228;-86
2022/08/26 10:58:59;;;;;;;12.33;3.93;;;;;;;;;;5091219;28;20217;-86
2022/08/26 11:01:44;;;;;;;15.33;4.67;;;;;;;;;;5091275;28;20212;-86
2022/08/26 11:04:24;;;;;;;9.43;4.27;;;;;;;;;;5090871;28;20230;-85
2022/08/26 11:07:29;;;;;;;14.70;5.13;;;;;;;;;;5090733;28;20697;-86
2022/08/26 11:09:57;;;;;;;15.60;5.20;;;;;;;;;;5091395;28;20200;-86
2022/08/26 11:12:49;;;;;;;8.53;4.20;;;;;;;;;;5091306;28;20204;-85
2022/08/26 11:16:07;;;;;;;10.10;4.00;;;;;;;;;;5085087;28;20208;-85
2022/08/26 11:18:42;;;;;;;6.53;3.90;;;;;;;;;;5090732;28;20217;-84
2022/08/26 11:21:46;;;;;;;9.57;4.70;;;;;;;;;;5090649;28;20215;-85
2022/08/26 11:25:00;;;;;;;11.00;4.10;;;;;;;;;;5105083;28;20272;-82
2022/08/26 11:28:04;;;;;;;6.33;3.80;;;;;;;;;;5085046;28;20212;-87
2022/08/26 11:30:50;;;;;;;14.47;3.90;;;;;;;;;;5090594;28;20682;-85
2022/08/26 11:33:59;;;;;;;17.27;5.10;;;;;;;;;;5091267;28;20212;-89
2022/08/26 11:36:58;;;;;;;9.07;4.87;;;;;;;;;;5095021;28;20637;-92
2022/08/26 11:39:32;;;;;;;10.37;4.33;;;;;;;;;;5095310;28;20204;-90
2022/08/26 11:42:01;;;;;;;13.67;4.73;;;;;;;;;;5095760;28;20200;-90
2022/08/26 11:44:37;;;;;;;16.40;5.20;;;;;;;;;;5109091;28;20620;-90
2022/08/26 11:47:09;;;;;;;8.40;4.07;;;;;;;;;;5095511;28;20714;-91
2022/08/26 11:49:38;;;;;;;12.87;4.50;;;;;;;;;;5095030;28;20295;-84
2022/08/26 11:52:13;;;;;;;12.03;3.97;;;;;;;;;;5094234;28;20211;-84
2022/08/26 11:54:40;;;;;;;13.30;5.50;;;;;;;;;;5094588;28;20590;-85
2022/08/26 11:57:10;;;;;;;13.93;4.93;;;;;;;;;;5091566;28;20196;-87
2022/08/26 11:59:39;;;;;;;11.60;4.07;;;;;;;;;;5092508;28;20195;-86
2022/08/26 12:02:14;;;;;;;10.23;4.67;;;;;;;;;;5084109;28;20231;-85
2022/08/26 12:04:44;;;;;;;14.63;4.57;;;;;;;;;;5094138;28;20255;-85
2022/08/26 12:07:11;;;;;;;7.67;4.57;;;;;;;;;;5094426;28;20232;-85
2022/08/26 12:09:52;;;;;;;12.87;4.77;;;;;;;;;;5094433;28;20197;-86
2022/08/26 12:12:24;;;;;;;13.53;4.30;;;;;;;;;;5095572;28;20283;-84
2022/08/26 12:15:09;;;;;;;17.97;4.97;;;;;;;;;;5105273;28;20200;-83
2022/08/26 12:17:38;;;;;;;16.23;4.83;;;;;;;;;;5094140;28;20209;-85
2022/08/26 12:20:06;;;;;;;10.53;4.50;;;;;;;;;;5093875;28;20215;-85
2022/08/26 12:22:34;;;;;;;18.00;4.60;;;;;;;;;;5094105;28;20212;-87
2022/08/26 12:25:03;;;;;;;13.47;5.00;;;;;;;;;;5093633;28;20224;-83
2022/08/26 12:27:32;;;;;;;17.40;5.57;;;;;;;;;;5094698;28;20266;-94
2022/08/26 12:30:05;;;;;;;12.60;4.40;;;;;;;;;;5094586;28;20208;-90
2022/08/26 12:32:33;;;;;;;7.97;4.43;;;;;;;;;;5093915;28;20215;-87
2022/08/26 12:35:03;;;;;;;17.50;4.40;;;;;;;;;;5094774;28;20208;-90
2022/08/26 12:37:34;;;;;;;18.80;5.00;;;;;;;;;;5094774;28;20212;-89
2022/08/26 12:40:25;;;;;;;11.07;4.40;;;;;;;;;;5094574;28;20208;-88
2022/08/26 12:42:52;;;;;;;6.20;3.97;;;;;;;;;;5093851;28;20624;-86
2022/08/26 12:45:26;;;;;;;11.50;4.43;;;;;;;;;;5094141;28;20637;-87
2022/08/26 12:47:55;;;;;;;13.60;5.03;;;;;;;;;;5093571;28;20666;-87
2022/08/26 12:50:26;;;;;;;17.93;5.17;;;;;;;;;;5093293;28;20704;-88
2022/08/26 12:52:57;;;;;;;15.77;5.40;;;;;;;;;;5107421;28;20208;-90
2022/08/26 12:55:27;;;;;;;12.10;5.30;;;;;;;;;;5089998;28;20232;-90
2022/08/26 12:58:10;;;;;;;11.23;4.43;;;;;;;;;;5093648;28;20693;-89
2022/08/26 13:00:38;;;;;;;7.90;4.97;;;;;;;;;;5093385;28;20192;-89
2022/08/26 13:03:37;;;;;;;7.70;4.70;;;;;;;;;;5103766;28;20199;-83
2022/08/26 13:06:17;;;;;;;9.77;4.13;;;;;;;;;;5079827;28;20220;-87
2022/08/26 13:08:46;;;;;;;9.70;4.83;;;;;;;;;;5093176;28;20235;-94
2022/08/26 13:11:19;;;;;;;7.43;4.17;;;;;;;;;;5094449;28;20272;-95
2022/08/26 13:13:46;;;;;;;10.47;4.60;;;;;;;;;;5094830;28;20227;-88
2022/08/26 13:16:13;;;;;;;9.53;4.03;;;;;;;;;;5108838;28;20208;-88
2022/08/26 13:18:41;;;;;;;6.53;3.97;;;;;;;;;;5106367;28;20206;-92
2022/08/26 13:21:11;;;;;;;7.93;4.23;;;;;;;;;;5100743;28;20241;-88
2022/08/26 13:23:39;;;;;;;8.70;4.83;;;;;;;;;;5102364;28;20216;-83
2022/08/26 13:26:06;;;;;;;6.73;3.90;;;;;;;;;;5093413;28;20202;-89
2022/08/26 13:28:33;;;;;;;7.77;3.97;;;;;;;;;;5091807;28;20587;-82
2022/08/26 13:31:00;;;;;;;13.20;4.33;;;;;;;;;;5106929;28;20282;-87
2022/08/26 13:33:27;;;;;;;7.10;4.13;;;;;;;;;;5092887;28;20707;-87
2022/08/26 13:35:54;;;;;;;6.20;4.17;;;;;;;;;;5093692;28;20288;-88
2022/08/26 13:38:21;;;;;;;9.90;4.17;;;;;;;;;;5092798;28;20290;-91
2022/08/26 13:40:50;;;;;;;6.63;3.93;;;;;;;;;;5094025;28;20204;-93
2022/08/26 13:43:17;;;;;;;8.43;4.00;;;;;;;;;;5088813;28;20224;-92
2022/08/26 13:45:48;;;;;;;12.23;5.17;;;;;;;;;;5083483;28;20205;-89
2022/08/26 13:48:16;;;;;;;9.23;4.10;;;;;;;;;;5096522;28;20245;-88
2022/08/26 13:50:43;;;;;;;14.37;4.83;;;;;;;;;;5103405;28;20257;-88
2022/08/26 13:53:11;;;;;;;12.93;4.13;;;;;;;;;;5092333;28;20211;-85
2022/08/26 13:55:37;;;;;;;9.03;4.17;;;;;;;;;;5091173;28;20228;-86
2022/08/26 13:58:06;;;;;;;9.97;3.63;;;;;;;;;;5091822;28;20299;-88
2022/08/26 14:00:34;;;;;;;12.47;4.47;;;;;;;;;;5091264;28;20706;-81
2022/08/26 14:03:01;;;;;;;9.20;3.90;;;;;;;;;;5092195;28;20234;-86
2022/08/26 14:05:28;;;;;;;6.10;3.93;;;;;;;;;;5073303;28;20231;-87
2022/08/26 14:07:56;;;;;;;12.47;4.27;;;;;;;;;;5091989;28;20192;-86
2022/08/26 14:10:23;;;;;;;11.80;4.17;;;;;;;;;;5091474;28;20234;-88
2022/08/26 14:12:50;;;;;;;6.57;3.97;;;;;;;;;;5091488;28;20693;-87
2022/08/26 14:15:19;;;;;;;12.07;4.80;;;;;;;;;;5103845;28;20210;-88
2022/08/26 14:17:47;;;;;;;13.63;5.17;;;;;;;;;;5074938;28;20273;-88
2022/08/26 14:20:17;;;;;;;10.60;3.97;;;;;;;;;;5091094;28;20215;-87
2022/08/26 14:22:44;;;;;;;11.57;4.17;;;;;;;;;;5090344;28;20196;-86
2022/08/26 14:25:12;;;;;;;9.50;3.67;;;;;;;;;;5091522;28;20293;-89
2022/08/26 14:27:39;;;;;;;8.23;4.53;;;;;;;;;;5091964;28;20601;-88
2022/08/26 14:30:08;;;;;;;8.37;4.37;;;;;;;;;;5091690;28;20211;-90
2022/08/26 14:32:39;;;;;;;12.97;3.97;;;;;;;;;;5091508;28;20204;-91
2022/08/26 14:35:07;;;;;;;16.70;4.17;;;;;;;;;;5090990;28;20204;-89
2022/08/26 14:37:34;;;;;;;9.20;4.30;;;;;;;;;;5065903;28;20201;-90
2022/08/26 14:40:01;;;;;;;5.03;4.60;;;;;;;;;;5091449;28;20219;-90
2022/08/26 14:42:29;;;;;;;9.23;4.23;;;;;;;;;;5092172;28;20200;-90
2022/08/26 14:44:59;;;;;;;6.90;3.53;;;;;;;;;;5091817;28;20266;-90
2022/08/26 14:47:28;;;;;;;9.30;4.30;;;;;;;;;;5091998;28;20200;-89
2022/08/26 14:49:57;;;;;;;10.90;4.47;;;;;;;;;;5091767;28;20701;-90
2022/08/26 14:52:24;;;;;;;9.50;4.07;;;;;;;;;;5092021;28;20200;-90
2022/08/26 14:54:50;;;;;;;8.37;3.77;;;;;;;;;;5092034;28;20311;-88
2022/08/26 14:57:17;;;;;;;7.17;3.90;;;;;;;;;;5074440;28;20316;-90
2022/08/26 14:59:45;;;;;;;6.27;4.13;;;;;;;;;;5091667;28;20208;-91